Time;durP1;ratioP1;P1;durP2;ratioP2;P2;SDS_P1;SDS_P2;PMS_P1;PMS_P2;Temp;Humidity;BMP_temperature;BMP_pressure;BME280_temperature;BME280_humidity;BME280_pressure;Samples;Min_cycle;Max_cycle;Signal;HPM_P1;HPM_P2
2021/03/04 00:00:18;;;;;;;54.97;31.80;;;7.00;99.90;;;;;;5116367;28;20191;-76
2021/03/04 00:02:45;;;;;;;45.88;31.65;;;6.90;99.90;;;;;;5113451;28;20171;-76
2021/03/04 00:05:16;;;;;;;47.88;32.65;;;6.90;99.90;;;;;;5095056;28;20225;-77
2021/03/04 00:07:43;;;;;;;46.53;26.80;;;6.90;99.90;;;;;;5095474;28;20183;-77
2021/03/04 00:10:13;;;;;;;59.17;33.15;;;6.90;99.90;;;;;;5095519;28;20188;-77
2021/03/04 00:12:41;;;;;;;49.85;32.58;;;6.90;99.90;;;;;;5101417;28;20175;-77
2021/03/04 00:15:12;;;;;;;57.70;31.45;;;6.90;99.90;;;;;;5096815;28;20215;-77
2021/03/04 00:17:45;;;;;;;66.25;35.35;;;6.80;99.90;;;;;;5100703;28;20175;-77
2021/03/04 00:20:15;;;;;;;65.13;32.83;;;6.70;99.90;;;;;;5094851;28;20187;-77
2021/03/04 00:22:42;;;;;;;57.55;33.55;;;6.70;99.90;;;;;;5094943;28;20179;-77
2021/03/04 00:25:10;;;;;;;62.08;38.03;;;6.70;99.90;;;;;;5094818;28;20206;-77
2021/03/04 00:27:39;;;;;;;75.75;37.80;;;6.70;99.90;;;;;;5094970;28;20194;-77
2021/03/04 00:30:08;;;;;;;64.43;40.42;;;6.60;99.90;;;;;;5094795;28;20206;-76
2021/03/04 00:32:36;;;;;;;59.00;35.10;;;6.60;99.90;;;;;;5076869;28;20191;-77
2021/03/04 00:35:05;;;;;;;65.80;35.47;;;6.60;99.90;;;;;;5095022;28;20211;-77
2021/03/04 00:37:32;;;;;;;69.00;38.90;;;6.60;99.90;;;;;;5095598;28;20179;-76
2021/03/04 00:40:00;;;;;;;79.18;41.63;;;6.50;99.90;;;;;;5096864;28;20653;-77
2021/03/04 00:42:27;;;;;;;60.97;39.47;;;6.50;99.90;;;;;;5096022;28;20191;-76
2021/03/04 00:44:55;;;;;;;70.93;39.70;;;6.50;99.90;;;;;;5095801;28;20207;-76
2021/03/04 00:47:22;;;;;;;81.43;43.10;;;6.50;99.90;;;;;;5095153;28;20176;-76
2021/03/04 00:49:49;;;;;;;67.63;39.17;;;6.40;99.90;;;;;;5094846;28;20195;-76
2021/03/04 00:52:17;;;;;;;73.43;39.53;;;6.30;99.90;;;;;;5094994;28;20188;-77
2021/03/04 00:54:44;;;;;;;69.63;39.33;;;6.30;99.90;;;;;;5095642;28;20217;-77
2021/03/04 00:57:11;;;;;;;79.13;43.33;;;6.30;99.90;;;;;;5095185;28;20214;-77
2021/03/04 00:59:39;;;;;;;61.55;36.95;;;6.20;99.90;;;;;;5096238;28;20179;-77
2021/03/04 01:02:06;;;;;;;73.03;44.33;;;6.20;99.90;;;;;;5095675;28;20179;-77
2021/03/04 01:04:33;;;;;;;66.18;38.70;;;6.10;99.90;;;;;;5094714;28;20199;-77
2021/03/04 01:07:01;;;;;;;71.88;38.95;;;6.10;99.90;;;;;;5079336;28;20207;-76
2021/03/04 01:09:29;;;;;;;69.63;38.47;;;6.10;99.90;;;;;;5096116;28;20657;-77
2021/03/04 01:11:56;;;;;;;52.22;37.35;;;6.00;99.90;;;;;;5077097;28;20638;-77
2021/03/04 01:14:23;;;;;;;60.63;39.97;;;6.00;99.90;;;;;;5077228;28;20231;-76
2021/03/04 01:16:50;;;;;;;73.53;40.80;;;6.00;99.90;;;;;;5095067;28;20190;-77
2021/03/04 01:19:18;;;;;;;63.72;39.08;;;6.00;99.90;;;;;;5095076;28;20555;-76
2021/03/04 01:21:45;;;;;;;63.38;40.13;;;6.00;99.90;;;;;;5094698;28;20634;-76
2021/03/04 01:24:12;;;;;;;63.67;36.75;;;6.00;99.90;;;;;;5076222;28;20692;-76
2021/03/04 01:26:40;;;;;;;65.18;37.15;;;5.90;99.90;;;;;;5097811;28;20575;-77
2021/03/04 01:29:07;;;;;;;73.00;40.22;;;5.80;99.90;;;;;;5103210;28;20183;-76
2021/03/04 01:31:34;;;;;;;66.55;38.65;;;5.80;99.90;;;;;;5106647;28;20194;-76
2021/03/04 01:34:01;;;;;;;73.03;37.67;;;5.60;99.90;;;;;;5109867;28;20219;-76
2021/03/04 01:36:29;;;;;;;57.55;36.65;;;5.60;99.90;;;;;;5111690;28;20199;-77
2021/03/04 01:38:56;;;;;;;63.40;38.15;;;5.50;99.90;;;;;;5113027;28;20176;-76
2021/03/04 01:41:23;;;;;;;61.95;38.53;;;5.50;99.90;;;;;;5095407;28;20191;-76
2021/03/04 01:43:51;;;;;;;61.70;36.28;;;5.50;99.90;;;;;;5123960;22;20215;-78
2021/03/04 01:46:19;;;;;;;64.07;37.72;;;5.40;99.90;;;;;;5104584;28;20290;-78
2021/03/04 01:48:50;;;;;;;68.03;36.83;;;5.30;99.90;;;;;;5103909;28;20206;-78
2021/03/04 01:51:18;;;;;;;64.97;35.33;;;5.20;99.90;;;;;;5107940;28;20195;-77
2021/03/04 01:53:45;;;;;;;63.50;37.50;;;5.20;99.90;;;;;;5104198;28;20211;-78
2021/03/04 01:56:13;;;;;;;64.22;35.85;;;5.10;99.90;;;;;;5073913;28;20208;-76
2021/03/04 01:58:40;;;;;;;61.65;36.00;;;5.10;99.90;;;;;;5107120;28;20266;-78
2021/03/04 02:01:09;;;;;;;70.38;39.30;;;5.10;99.90;;;;;;5107995;28;20183;-78
2021/03/04 02:03:36;;;;;;;64.53;38.85;;;5.00;99.90;;;;;;5106313;28;20184;-78
2021/03/04 02:08:39;;;;;;;76.80;40.55;;;5.10;99.90;;;;;;5104036;28;20259;-79
2021/03/04 02:11:14;;;;;;;68.95;38.92;;;5.10;99.90;;;;;;5109314;28;20242;-76
2021/03/04 02:13:46;;;;;;;64.05;39.40;;;5.10;99.90;;;;;;5107996;28;20233;-80
2021/03/04 02:16:20;;;;;;;73.68;41.45;;;5.20;99.90;;;;;;5110023;28;20200;-77
2021/03/04 02:19:00;;;;;;;80.78;41.05;;;5.20;99.90;;;;;;5112221;28;20202;-79
2021/03/04 02:21:44;;;;;;;67.03;40.50;;;5.20;99.90;;;;;;5107601;28;20199;-80
2021/03/04 02:24:29;;;;;;;68.90;40.70;;;5.10;99.90;;;;;;5105888;28;20203;-80
2021/03/04 02:27:09;;;;;;;64.50;36.55;;;5.00;99.90;;;;;;5103610;28;20225;-79
2021/03/04 02:29:43;;;;;;;74.22;39.30;;;5.00;99.90;;;;;;5105494;28;20186;-79
2021/03/04 02:32:11;;;;;;;73.90;40.90;;;4.90;99.90;;;;;;5111843;28;20210;-78
2021/03/04 02:34:45;;;;;;;77.75;44.15;;;4.90;99.90;;;;;;5087557;28;20224;-79
2021/03/04 02:37:16;;;;;;;88.22;45.90;;;5.00;99.90;;;;;;5100596;28;20191;-80
2021/03/04 02:39:44;;;;;;;83.68;44.55;;;5.10;99.90;;;;;;5113730;28;20199;-80
2021/03/04 02:42:16;;;;;;;70.45;47.38;;;5.30;99.90;;;;;;5106725;28;20178;-79
2021/03/04 02:44:45;;;;;;;68.45;43.97;;;5.30;99.90;;;;;;5111512;28;20223;-78
2021/03/04 02:47:14;;;;;;;101.47;49.92;;;5.40;99.90;;;;;;5113154;28;20192;-79
2021/03/04 02:49:43;;;;;;;84.90;47.13;;;5.50;99.90;;;;;;5113462;28;20203;-78
2021/03/04 02:52:11;;;;;;;75.50;48.10;;;5.50;99.90;;;;;;5112410;28;20212;-76
2021/03/04 02:54:40;;;;;;;90.30;52.03;;;5.50;99.90;;;;;;5110578;28;20226;-79
2021/03/04 02:57:10;;;;;;;76.25;42.28;;;5.50;99.90;;;;;;5111454;28;20191;-78
2021/03/04 02:59:40;;;;;;;102.63;49.45;;;5.50;99.90;;;;;;5109659;28;20188;-79
2021/03/04 03:02:08;;;;;;;82.85;46.58;;;5.50;99.90;;;;;;5096570;28;20231;-79
2021/03/04 03:04:39;;;;;;;74.05;43.33;;;5.50;99.90;;;;;;5097844;28;20215;-80
2021/03/04 03:07:08;;;;;;;80.97;47.08;;;5.40;99.90;;;;;;5079451;28;20177;-80
2021/03/04 03:09:38;;;;;;;72.70;42.70;;;5.40;99.90;;;;;;5078157;28;20590;-80
2021/03/04 03:12:07;;;;;;;85.50;45.38;;;5.40;99.90;;;;;;5078617;28;20192;-81
2021/03/04 03:14:34;;;;;;;68.20;39.97;;;5.30;99.90;;;;;;5085023;28;20295;-80
2021/03/04 03:17:02;;;;;;;67.25;43.58;;;5.30;99.90;;;;;;5079622;28;20286;-81
2021/03/04 03:19:31;;;;;;;77.35;45.85;;;5.30;99.90;;;;;;5079666;28;20600;-81
2021/03/04 03:21:58;;;;;;;71.60;39.88;;;5.20;99.90;;;;;;5079788;28;20210;-81
2021/03/04 03:24:26;;;;;;;73.03;42.78;;;5.20;99.90;;;;;;5079771;28;20263;-79
2021/03/04 03:26:53;;;;;;;71.00;43.53;;;5.20;99.90;;;;;;5080547;28;20203;-79
2021/03/04 03:29:21;;;;;;;72.28;39.40;;;5.20;99.90;;;;;;5079083;28;20188;-80
2021/03/04 03:31:50;;;;;;;95.55;43.90;;;5.20;99.90;;;;;;5077838;28;20188;-81
2021/03/04 03:34:18;;;;;;;80.95;40.28;;;5.30;99.90;;;;;;5081102;28;20216;-80
2021/03/04 03:36:47;;;;;;;58.22;35.65;;;5.30;99.90;;;;;;5083822;28;20196;-79
2021/03/04 03:39:15;;;;;;;65.35;37.28;;;5.30;99.90;;;;;;5085268;28;20184;-79
2021/03/04 03:41:43;;;;;;;57.33;39.08;;;5.30;99.90;;;;;;5082111;28;20189;-80
2021/03/04 03:44:12;;;;;;;67.75;35.72;;;5.20;99.90;;;;;;5083675;28;20246;-79
2021/03/04 03:46:40;;;;;;;67.40;36.20;;;5.20;99.90;;;;;;5083854;28;20207;-80
2021/03/04 03:49:11;;;;;;;47.83;31.40;;;5.00;99.90;;;;;;5085071;28;20180;-81
2021/03/04 03:51:40;;;;;;;53.53;32.95;;;4.80;99.90;;;;;;5086808;28;20219;-80
2021/03/04 03:54:08;;;;;;;50.20;30.42;;;4.70;99.90;;;;;;5088102;28;20208;-78
2021/03/04 03:56:39;;;;;;;56.97;32.28;;;4.70;99.90;;;;;;5082578;28;20230;-79
2021/03/04 03:59:08;;;;;;;61.90;31.25;;;4.70;99.90;;;;;;5085784;28;20189;-80
2021/03/04 04:01:36;;;;;;;43.47;26.20;;;4.70;99.90;;;;;;5085618;28;20271;-81
2021/03/04 04:04:04;;;;;;;69.35;31.80;;;4.70;99.90;;;;;;5082388;28;20242;-79
2021/03/04 04:06:32;;;;;;;60.47;33.75;;;4.70;99.90;;;;;;5065357;28;20195;-80
2021/03/04 04:09:00;;;;;;;43.72;27.70;;;4.60;99.90;;;;;;5083875;28;20192;-79
2021/03/04 04:11:29;;;;;;;59.00;38.53;;;4.60;99.90;;;;;;5083843;28;20327;-79
2021/03/04 04:13:58;;;;;;;56.58;30.50;;;4.50;99.90;;;;;;5084366;28;20246;-80
2021/03/04 04:16:27;;;;;;;43.83;28.70;;;4.50;99.90;;;;;;5089528;28;20176;-79
2021/03/04 04:18:55;;;;;;;43.05;29.38;;;4.40;99.90;;;;;;5093724;28;20200;-81
2021/03/04 04:21:24;;;;;;;54.85;28.65;;;4.40;99.90;;;;;;5093243;28;20180;-78
2021/03/04 04:23:52;;;;;;;51.78;32.30;;;4.30;99.90;;;;;;5085061;28;20558;-80
2021/03/04 04:26:21;;;;;;;56.45;32.38;;;4.10;99.90;;;;;;5084738;28;20196;-77
2021/03/04 04:28:48;;;;;;;49.05;30.17;;;4.10;99.90;;;;;;5085187;28;20231;-80
2021/03/04 04:31:15;;;;;;;55.42;26.75;;;4.10;99.90;;;;;;5084117;28;20204;-79
2021/03/04 04:33:43;;;;;;;54.80;28.13;;;4.10;99.90;;;;;;5085966;28;20408;-81
2021/03/04 04:36:10;;;;;;;55.60;26.85;;;4.10;99.90;;;;;;5085058;28;20176;-80
2021/03/04 04:38:37;;;;;;;55.30;27.63;;;4.10;99.90;;;;;;5083331;28;20178;-81
2021/03/04 04:41:05;;;;;;;42.72;24.55;;;4.00;99.90;;;;;;5088131;28;20203;-81
2021/03/04 04:43:33;;;;;;;49.97;24.35;;;4.00;99.90;;;;;;5090303;28;20187;-81
2021/03/04 04:46:01;;;;;;;49.47;28.15;;;4.10;99.90;;;;;;5092790;28;20192;-79
2021/03/04 04:48:29;;;;;;;50.30;28.00;;;4.00;99.90;;;;;;5092575;28;20255;-79
2021/03/04 04:51:10;;;;;;;40.38;23.17;;;4.00;99.90;;;;;;5093213;28;20176;-80
2021/03/04 04:53:38;;;;;;;57.83;27.90;;;4.00;99.90;;;;;;5091936;28;20188;-80
2021/03/04 04:56:05;;;;;;;37.95;22.85;;;4.10;99.90;;;;;;5090636;28;20623;-78
2021/03/04 04:58:33;;;;;;;42.30;24.40;;;4.10;99.90;;;;;;5085627;28;20188;-78
2021/03/04 05:01:01;;;;;;;45.53;22.30;;;4.10;99.90;;;;;;5095281;28;20188;-77
2021/03/04 05:03:28;;;;;;;40.25;22.50;;;4.10;99.90;;;;;;5093462;28;20218;-77
2021/03/04 05:06:10;;;;;;;38.85;21.70;;;4.00;99.90;;;;;;5091999;28;20168;-80
2021/03/04 05:08:37;;;;;;;36.95;21.05;;;4.00;99.90;;;;;;5085189;28;20196;-79
2021/03/04 05:11:05;;;;;;;34.55;22.13;;;4.00;99.90;;;;;;5084185;28;20179;-81
2021/03/04 05:13:33;;;;;;;49.20;24.67;;;4.00;99.90;;;;;;5082300;28;20196;-80
2021/03/04 05:16:00;;;;;;;40.35;21.52;;;4.10;99.90;;;;;;5089726;28;20247;-79
2021/03/04 05:18:27;;;;;;;51.13;26.95;;;4.10;99.90;;;;;;5094439;28;20192;-78
2021/03/04 05:20:54;;;;;;;35.40;19.27;;;4.00;99.90;;;;;;5095249;28;20188;-80
2021/03/04 05:23:21;;;;;;;39.90;20.90;;;4.00;99.90;;;;;;5092027;28;20196;-79
2021/03/04 05:25:49;;;;;;;43.50;22.42;;;4.10;99.90;;;;;;5085881;28;20215;-81
2021/03/04 05:28:16;;;;;;;47.75;21.80;;;4.00;99.90;;;;;;5083601;28;20225;-78
2021/03/04 05:30:44;;;;;;;44.85;20.77;;;4.00;99.90;;;;;;5081981;28;20181;-80
2021/03/04 05:33:11;;;;;;;35.92;21.13;;;4.00;99.90;;;;;;5082818;28;20188;-77
2021/03/04 05:35:38;;;;;;;46.65;23.10;;;3.90;99.90;;;;;;5082036;28;20212;-78
2021/03/04 05:38:05;;;;;;;44.65;23.95;;;3.90;99.90;;;;;;5082568;28;20191;-79
2021/03/04 05:40:33;;;;;;;46.40;22.67;;;3.90;99.90;;;;;;5082283;28;20190;-81
2021/03/04 05:43:01;;;;;;;52.80;25.65;;;4.00;99.90;;;;;;5082688;28;20184;-81
2021/03/04 05:45:30;;;;;;;65.10;27.27;;;4.00;99.90;;;;;;5080550;28;20219;-80
2021/03/04 05:48:02;;;;;;;58.20;26.45;;;3.90;99.90;;;;;;5082228;28;20180;-77
2021/03/04 05:50:31;;;;;;;49.25;26.20;;;4.00;99.90;;;;;;5082840;28;20180;-81
2021/03/04 05:53:04;;;;;;;50.10;21.42;;;4.00;99.90;;;;;;5083203;28;20168;-79
2021/03/04 05:55:31;;;;;;;49.35;26.48;;;3.90;99.90;;;;;;5080387;28;20215;-78
2021/03/04 05:57:59;;;;;;;46.75;23.85;;;3.90;99.90;;;;;;5080721;28;20243;-79
2021/03/04 06:00:27;;;;;;;41.88;19.73;;;3.90;99.90;;;;;;5079662;28;20592;-81
2021/03/04 06:02:55;;;;;;;47.10;23.33;;;4.00;99.90;;;;;;5079164;28;20543;-78
2021/03/04 06:05:24;;;;;;;48.50;27.13;;;4.00;99.90;;;;;;5079464;28;20266;-80
2021/03/04 06:07:51;;;;;;;33.92;19.00;;;3.90;99.90;;;;;;5084786;28;20195;-81
2021/03/04 06:10:18;;;;;;;35.13;20.70;;;3.80;99.90;;;;;;5085210;28;20200;-80
2021/03/04 06:12:45;;;;;;;38.65;20.13;;;3.80;99.90;;;;;;5088813;28;20177;-81
2021/03/04 06:15:13;;;;;;;48.53;22.05;;;3.80;99.90;;;;;;5085558;28;20758;-81
2021/03/04 06:17:51;;;;;;;45.05;22.08;;;3.80;99.90;;;;;;5086119;28;20188;-80
2021/03/04 06:20:19;;;;;;;43.95;21.83;;;3.80;99.90;;;;;;5083173;28;20203;-80
2021/03/04 06:22:48;;;;;;;44.58;20.85;;;3.80;99.90;;;;;;5084949;28;20180;-81
2021/03/04 06:25:16;;;;;;;42.42;18.58;;;3.80;99.90;;;;;;5082028;28;20208;-80
2021/03/04 06:27:46;;;;;;;48.53;22.40;;;3.80;99.90;;;;;;5082525;28;20187;-81
2021/03/04 06:30:16;;;;;;;41.53;20.67;;;3.80;99.90;;;;;;5079571;28;20219;-81
2021/03/04 06:32:55;;;;;;;47.35;24.00;;;3.90;99.90;;;;;;5086744;28;20542;-82
2021/03/04 06:35:24;;;;;;;46.80;22.00;;;3.90;99.90;;;;;;5087634;28;20211;-78
2021/03/04 06:37:52;;;;;;;35.25;20.42;;;3.90;99.90;;;;;;5084366;28;20581;-80
2021/03/04 06:40:25;;;;;;;36.55;18.98;;;4.00;99.90;;;;;;5085851;28;20478;-80
2021/03/04 06:42:54;;;;;;;44.45;22.10;;;4.00;99.90;;;;;;5086949;28;20198;-79
2021/03/04 06:45:27;;;;;;;51.17;23.45;;;4.10;99.90;;;;;;5084465;28;20226;-80
2021/03/04 06:48:06;;;;;;;42.92;18.60;;;4.10;99.90;;;;;;5083472;28;20187;-81
2021/03/04 06:50:34;;;;;;;49.88;22.50;;;4.10;99.90;;;;;;5083959;28;20194;-79
2021/03/04 06:53:15;;;;;;;43.55;18.90;;;4.10;99.90;;;;;;5084146;28;20207;-81
2021/03/04 06:55:55;;;;;;;57.13;23.02;;;4.20;99.90;;;;;;5076428;28;20228;-79
2021/03/04 06:58:27;;;;;;;42.78;21.33;;;4.20;99.90;;;;;;5096404;28;20194;-82
2021/03/04 07:01:05;;;;;;;34.88;20.80;;;4.30;99.90;;;;;;5101722;28;20202;-78
2021/03/04 07:03:42;;;;;;;38.38;20.55;;;4.30;99.90;;;;;;5084291;28;20190;-79
2021/03/04 07:06:29;;;;;;;48.40;23.02;;;4.30;99.90;;;;;;5082197;28;20192;-80
2021/03/04 07:08:58;;;;;;;38.50;18.98;;;4.40;99.90;;;;;;5083107;28;20192;-79
2021/03/04 07:11:26;;;;;;;41.10;19.75;;;4.40;99.90;;;;;;5083125;28;20211;-80
2021/03/04 07:13:53;;;;;;;43.08;20.10;;;4.40;99.90;;;;;;5082748;28;20227;-78
2021/03/04 07:16:24;;;;;;;42.05;21.05;;;4.40;99.90;;;;;;5084324;28;20206;-79
2021/03/04 07:18:54;;;;;;;42.13;20.02;;;4.40;99.90;;;;;;5084560;28;20212;-79
2021/03/04 07:21:23;;;;;;;41.92;21.40;;;4.40;99.90;;;;;;5087795;28;20272;-78
2021/03/04 07:23:51;;;;;;;50.03;21.42;;;4.30;99.90;;;;;;5087810;28;20219;-78
2021/03/04 07:26:20;;;;;;;39.45;17.98;;;4.30;99.90;;;;;;5087347;28;20188;-81
2021/03/04 07:28:50;;;;;;;38.00;17.92;;;4.40;99.90;;;;;;5089481;28;20268;-78
2021/03/04 07:31:17;;;;;;;40.50;20.60;;;4.30;99.90;;;;;;5086913;28;20662;-80
2021/03/04 07:33:47;;;;;;;35.05;20.52;;;4.40;99.90;;;;;;5087166;28;20641;-81
2021/03/04 07:36:19;;;;;;;41.42;17.77;;;4.30;99.90;;;;;;5087468;28;20232;-81
2021/03/04 07:38:54;;;;;;;49.17;22.67;;;4.40;99.90;;;;;;5088718;28;20290;-80
2021/03/04 07:41:22;;;;;;;34.28;18.42;;;4.30;99.90;;;;;;5096883;28;20168;-79
2021/03/04 07:43:52;;;;;;;45.80;18.85;;;4.20;99.90;;;;;;5096850;28;20287;-77
2021/03/04 07:46:30;;;;;;;32.42;19.23;;;4.10;99.90;;;;;;5079362;28;20165;-77
2021/03/04 07:48:58;;;;;;;39.10;16.95;;;4.10;99.90;;;;;;5077701;28;20215;-78
2021/03/04 07:51:26;;;;;;;43.67;19.95;;;4.20;99.90;;;;;;5079554;28;20807;-76
2021/03/04 07:53:54;;;;;;;34.92;17.90;;;4.20;99.90;;;;;;5077993;28;20211;-78
2021/03/04 07:56:24;;;;;;;47.60;20.05;;;4.20;99.90;;;;;;5080310;28;20238;-79
2021/03/04 07:58:52;;;;;;;36.08;19.98;;;4.30;99.90;;;;;;5081426;28;20268;-78
2021/03/04 08:01:19;;;;;;;35.42;15.23;;;4.30;99.90;;;;;;5085821;28;20183;-77
2021/03/04 08:03:48;;;;;;;30.80;18.90;;;4.30;99.90;;;;;;5098522;28;20464;-78
2021/03/04 08:06:16;;;;;;;29.65;15.40;;;4.30;99.90;;;;;;5088995;28;20223;-78
2021/03/04 08:08:49;;;;;;;31.05;17.17;;;4.20;99.90;;;;;;5089650;28;20184;-78
2021/03/04 08:11:28;;;;;;;47.28;16.90;;;4.10;99.90;;;;;;5086718;28;20179;-77
2021/03/04 08:13:56;;;;;;;28.05;14.25;;;4.20;99.90;;;;;;5083405;28;20311;-78
2021/03/04 08:16:24;;;;;;;34.97;16.08;;;4.10;99.90;;;;;;5081793;28;20262;-77
2021/03/04 08:18:58;;;;;;;35.08;17.90;;;4.10;99.90;;;;;;5085782;28;20191;-77
2021/03/04 08:21:26;;;;;;;49.42;20.67;;;4.10;99.90;;;;;;5085537;28;20194;-77
2021/03/04 08:23:54;;;;;;;42.95;19.55;;;4.00;99.90;;;;;;5083654;28;20277;-77
2021/03/04 08:26:23;;;;;;;41.03;17.10;;;4.10;99.90;;;;;;5084655;28;20176;-77
2021/03/04 08:29:02;;;;;;;33.55;16.17;;;4.10;99.90;;;;;;5086634;28;20214;-78
2021/03/04 08:31:31;;;;;;;40.15;17.15;;;4.10;99.90;;;;;;5088360;28;20177;-78
2021/03/04 08:34:00;;;;;;;29.60;16.67;;;4.10;99.90;;;;;;5087490;28;20308;-78
2021/03/04 08:36:39;;;;;;;36.30;17.10;;;4.20;99.90;;;;;;5087412;28;20196;-79
2021/03/04 08:39:14;;;;;;;37.90;14.90;;;4.20;99.90;;;;;;5084724;28;20213;-78
2021/03/04 08:42:13;;;;;;;32.00;17.48;;;4.10;99.90;;;;;;5085349;28;20255;-78
2021/03/04 08:44:52;;;;;;;39.50;16.05;;;4.00;99.90;;;;;;5086419;28;20525;-78
2021/03/04 08:47:27;;;;;;;33.70;14.98;;;4.00;99.90;;;;;;5093670;28;20226;-80
2021/03/04 08:50:05;;;;;;;25.95;15.27;;;4.00;99.90;;;;;;5084113;28;20190;-77
2021/03/04 08:52:47;;;;;;;38.17;17.00;;;4.00;99.90;;;;;;5083993;28;20222;-79
2021/03/04 08:55:20;;;;;;;41.25;17.45;;;4.00;99.90;;;;;;5080972;28;20212;-78
2021/03/04 08:57:47;;;;;;;25.58;14.13;;;4.10;99.90;;;;;;5079094;28;20270;-78
2021/03/04 09:00:17;;;;;;;25.35;14.50;;;4.10;99.90;;;;;;5082520;28;20194;-78
2021/03/04 09:02:45;;;;;;;32.55;15.45;;;4.00;99.90;;;;;;5079411;28;20227;-77
2021/03/04 09:05:16;;;;;;;39.80;16.73;;;4.10;99.90;;;;;;5076591;28;20230;-77
2021/03/04 09:07:44;;;;;;;29.38;14.50;;;4.10;99.90;;;;;;5097714;28;20191;-81
2021/03/04 09:10:12;;;;;;;21.92;13.98;;;4.10;99.90;;;;;;5099977;28;20184;-79
2021/03/04 09:12:42;;;;;;;24.38;11.10;;;4.20;99.90;;;;;;5098964;28;20187;-78
2021/03/04 09:15:12;;;;;;;25.70;11.25;;;4.20;99.90;;;;;;5096404;28;20215;-79
2021/03/04 09:17:41;;;;;;;19.02;12.02;;;4.20;99.90;;;;;;5100788;28;20218;-77
2021/03/04 09:20:11;;;;;;;26.85;11.90;;;4.20;99.90;;;;;;5089806;28;20524;-79
2021/03/04 09:22:40;;;;;;;24.88;13.40;;;4.40;99.90;;;;;;5085969;28;20196;-80
2021/03/04 09:25:10;;;;;;;19.13;10.35;;;4.30;99.90;;;;;;5089841;28;20215;-77
2021/03/04 09:27:38;;;;;;;26.88;15.65;;;4.40;99.90;;;;;;5086587;28;20538;-79
2021/03/04 09:30:07;;;;;;;20.08;10.80;;;4.30;99.90;;;;;;5086903;28;20191;-82
2021/03/04 09:32:35;;;;;;;25.40;14.93;;;4.30;99.90;;;;;;5082724;28;20192;-80
2021/03/04 09:35:11;;;;;;;28.17;14.10;;;4.30;99.90;;;;;;5083666;28;20290;-82
2021/03/04 09:37:39;;;;;;;21.48;10.57;;;4.30;99.90;;;;;;5080709;28;20283;-82
2021/03/04 09:40:23;;;;;;;26.73;13.18;;;4.30;99.90;;;;;;5079487;28;20204;-79
2021/03/04 09:42:50;;;;;;;15.93;9.68;;;4.40;99.90;;;;;;5080683;28;20267;-78
2021/03/04 09:45:17;;;;;;;22.33;14.35;;;4.40;99.90;;;;;;5080705;28;20200;-78
2021/03/04 09:47:46;;;;;;;22.58;12.20;;;4.40;99.90;;;;;;5078375;28;20223;-79
2021/03/04 09:50:20;;;;;;;16.92;11.27;;;4.20;99.90;;;;;;5078883;28;20619;-82
2021/03/04 09:52:59;;;;;;;22.80;13.98;;;4.20;99.90;;;;;;5087013;28;20235;-80
2021/03/04 09:55:27;;;;;;;28.52;13.82;;;4.30;99.90;;;;;;5089416;28;20241;-81
2021/03/04 09:57:54;;;;;;;20.30;11.15;;;4.20;99.90;;;;;;5079224;28;20196;-79
2021/03/04 10:00:23;;;;;;;15.82;10.25;;;4.10;99.90;;;;;;5084886;28;20255;-78
2021/03/04 10:02:52;;;;;;;20.73;11.25;;;4.10;99.90;;;;;;5081734;28;20176;-78
2021/03/04 10:05:22;;;;;;;26.25;12.13;;;4.20;99.90;;;;;;5075261;28;20231;-77
2021/03/04 10:07:56;;;;;;;22.00;13.00;;;4.30;99.90;;;;;;5077375;28;20181;-80
2021/03/04 10:10:23;;;;;;;17.20;12.43;;;4.30;99.90;;;;;;5078957;28;20198;-80
2021/03/04 10:12:52;;;;;;;20.40;11.02;;;4.30;99.90;;;;;;5084176;28;20236;-79
2021/03/04 10:15:28;;;;;;;23.83;12.52;;;4.20;99.90;;;;;;5083108;28;20211;-81
2021/03/04 10:17:56;;;;;;;30.92;13.60;;;4.30;99.90;;;;;;5081833;28;20248;-80
2021/03/04 10:20:25;;;;;;;23.90;12.88;;;4.20;99.90;;;;;;5084605;28;20204;-83
2021/03/04 10:22:53;;;;;;;35.05;14.65;;;4.10;99.90;;;;;;5081283;28;20192;-81
2021/03/04 10:25:22;;;;;;;24.25;12.30;;;4.00;99.90;;;;;;5079902;28;20216;-81
2021/03/04 10:27:51;;;;;;;24.77;17.52;;;3.90;99.90;;;;;;5083418;28;20191;-81
2021/03/04 10:30:23;;;;;;;29.25;13.63;;;3.90;99.90;;;;;;5087367;28;20208;-78
2021/03/04 10:32:50;;;;;;;25.40;12.85;;;3.90;99.90;;;;;;5084774;28;20585;-80
2021/03/04 10:35:18;;;;;;;24.55;14.68;;;3.90;99.90;;;;;;5086188;28;20276;-80
2021/03/04 10:37:52;;;;;;;18.02;10.63;;;4.00;99.90;;;;;;5078737;28;20282;-78
2021/03/04 10:40:21;;;;;;;16.83;10.45;;;4.00;99.90;;;;;;5079840;28;20271;-78
2021/03/04 10:42:51;;;;;;;20.63;12.82;;;4.00;99.90;;;;;;5077774;28;20192;-80
2021/03/04 10:45:20;;;;;;;21.13;11.55;;;3.90;99.90;;;;;;5079272;28;20591;-79
2021/03/04 10:47:53;;;;;;;22.75;9.88;;;3.80;99.90;;;;;;5076933;28;20655;-79
2021/03/04 10:50:27;;;;;;;15.85;8.43;;;3.70;99.90;;;;;;5077518;28;20199;-79
2021/03/04 10:52:55;;;;;;;21.25;10.52;;;3.70;99.90;;;;;;5081648;28;20247;-80
2021/03/04 10:55:41;;;;;;;15.93;9.43;;;3.70;99.90;;;;;;5081821;28;20225;-80
2021/03/04 10:58:09;;;;;;;14.23;9.27;;;3.60;99.90;;;;;;5080958;28;20196;-82
2021/03/04 11:00:41;;;;;;;20.55;11.93;;;3.50;99.90;;;;;;5080617;28;20184;-79
2021/03/04 11:03:12;;;;;;;24.65;12.57;;;3.50;99.90;;;;;;5081670;28;20188;-79
2021/03/04 11:05:39;;;;;;;21.27;9.02;;;3.60;99.90;;;;;;5082801;28;20212;-78
2021/03/04 11:08:09;;;;;;;20.25;12.95;;;3.60;99.90;;;;;;5086137;28;20200;-79
2021/03/04 11:10:36;;;;;;;17.67;9.95;;;3.60;99.90;;;;;;5084728;28;20164;-79
2021/03/04 11:13:04;;;;;;;14.35;8.25;;;3.70;99.90;;;;;;5086740;28;20188;-78
2021/03/04 11:15:35;;;;;;;13.50;8.43;;;3.70;99.90;;;;;;5089024;28;20219;-78
2021/03/04 11:18:04;;;;;;;17.27;8.00;;;3.70;99.90;;;;;;5092610;28;20186;-80
2021/03/04 11:20:32;;;;;;;26.48;9.57;;;3.80;99.90;;;;;;5093070;28;20219;-78
2021/03/04 11:22:59;;;;;;;18.98;8.98;;;3.80;99.90;;;;;;5089180;28;20215;-77
2021/03/04 11:25:27;;;;;;;16.45;9.85;;;3.90;99.90;;;;;;5085932;28;20234;-76
2021/03/04 11:27:55;;;;;;;17.08;8.35;;;3.90;99.90;;;;;;5084599;28;20260;-77
2021/03/04 11:30:23;;;;;;;14.63;7.38;;;3.90;99.90;;;;;;5088140;28;20200;-77
2021/03/04 11:32:50;;;;;;;20.65;10.80;;;4.00;99.90;;;;;;5084819;28;20241;-78
2021/03/04 11:35:18;;;;;;;15.07;10.38;;;4.10;99.90;;;;;;5084522;28;20201;-78
2021/03/04 11:37:48;;;;;;;26.92;12.10;;;4.00;99.90;;;;;;5085230;28;20239;-78
2021/03/04 11:40:16;;;;;;;16.65;8.48;;;4.00;99.90;;;;;;5089689;28;20263;-79
2021/03/04 11:42:45;;;;;;;14.38;7.78;;;4.10;99.90;;;;;;5080875;28;20184;-77
2021/03/04 11:45:14;;;;;;;12.10;7.95;;;4.00;99.90;;;;;;5079628;28;20603;-78
2021/03/04 11:47:42;;;;;;;15.50;8.00;;;3.90;99.90;;;;;;5080480;28;20188;-79
2021/03/04 11:50:11;;;;;;;15.27;8.77;;;3.70;99.90;;;;;;5081125;28;20333;-81
2021/03/04 11:52:39;;;;;;;12.50;7.53;;;3.60;99.90;;;;;;5082259;28;20196;-80
2021/03/04 11:55:10;;;;;;;12.30;7.35;;;3.50;99.90;;;;;;5082929;28;20690;-80
2021/03/04 11:57:40;;;;;;;16.25;10.07;;;3.50;99.90;;;;;;5082891;28;20188;-80
2021/03/04 12:00:10;;;;;;;10.90;7.82;;;3.50;99.90;;;;;;5083283;28;20169;-80
2021/03/04 12:02:38;;;;;;;9.15;6.40;;;3.40;99.90;;;;;;5083128;28;20184;-81
2021/03/04 12:05:07;;;;;;;12.15;7.38;;;3.30;99.90;;;;;;5083011;28;20230;-80
2021/03/04 12:07:34;;;;;;;9.07;6.15;;;3.20;99.90;;;;;;5081704;28;20184;-80
2021/03/04 12:10:02;;;;;;;9.88;6.72;;;3.30;99.90;;;;;;5082922;28;20173;-79
2021/03/04 12:12:29;;;;;;;9.35;6.18;;;3.30;99.90;;;;;;5083336;28;20244;-79
2021/03/04 12:14:58;;;;;;;17.80;9.50;;;3.40;99.90;;;;;;5081423;28;20204;-80
2021/03/04 12:17:27;;;;;;;8.90;5.63;;;3.40;99.90;;;;;;5088550;28;20199;-79
2021/03/04 12:19:55;;;;;;;8.07;4.22;;;3.40;99.90;;;;;;5101594;28;20183;-80
2021/03/04 12:22:22;;;;;;;11.05;5.57;;;3.40;99.90;;;;;;5086751;28;20200;-79
2021/03/04 12:24:50;;;;;;;6.40;4.55;;;3.30;99.90;;;;;;5083130;28;20263;-81
2021/03/04 12:27:17;;;;;;;4.35;3.70;;;3.20;99.90;;;;;;5086843;28;20190;-80
2021/03/04 12:29:44;;;;;;;12.35;6.72;;;3.10;99.90;;;;;;5090141;28;20199;-79
2021/03/04 12:32:11;;;;;;;7.38;4.55;;;3.10;99.90;;;;;;5090292;28;20286;-80
2021/03/04 12:34:44;;;;;;;7.13;4.65;;;3.20;99.90;;;;;;5083441;28;20227;-80
2021/03/04 12:37:12;;;;;;;8.73;4.57;;;3.30;99.90;;;;;;5084311;28;20204;-81
2021/03/04 12:39:39;;;;;;;7.80;4.47;;;3.30;99.90;;;;;;5083958;28;20251;-80
2021/03/04 12:42:06;;;;;;;5.78;3.45;;;3.20;99.90;;;;;;5086093;28;20255;-79
2021/03/04 12:44:34;;;;;;;6.65;4.38;;;3.20;99.90;;;;;;5083236;28;20694;-80
2021/03/04 12:47:02;;;;;;;8.63;4.45;;;3.20;99.90;;;;;;5088630;28;20203;-81
2021/03/04 12:49:30;;;;;;;10.98;5.30;;;3.10;99.90;;;;;;5088649;28;20640;-81
2021/03/04 12:51:58;;;;;;;6.47;4.93;;;3.10;99.90;;;;;;5083162;28;20230;-81